createdAt,value
2016-11-21T00:00:20.857Z,90.69
2016-11-21T00:01:30.891Z,91.36
2016-11-21T00:02:40.899Z,91.46
2016-11-21T00:03:50.933Z,91.36
2016-11-21T00:05:00.960Z,91.46
2016-11-21T00:06:11.003Z,91.74
2016-11-21T00:07:21.019Z,91.83
2016-11-21T00:08:30.739Z,91.83
2016-11-21T00:09:41.048Z,92.22
2016-11-21T00:10:51.496Z,92.32
2016-11-21T00:12:01.816Z,92.98
2016-11-21T00:13:11.867Z,92.69
2016-11-21T00:14:21.687Z,92.6
2016-11-21T00:15:31.691Z,92.6
2016-11-21T00:16:41.708Z,93.08
2016-11-21T00:17:52.068Z,93.65
2016-11-21T00:19:01.785Z,93.36
2016-11-21T00:20:12.132Z,93.36
2016-11-21T00:21:22.548Z,93.27
2016-11-21T00:22:32.878Z,93.55
2016-11-21T00:23:43.221Z,94.03
2016-11-21T00:24:53.018Z,93.93
2016-11-21T00:26:03.419Z,94.22
2016-11-21T00:27:13.751Z,94.6
2016-11-21T00:28:24.068Z,94.32
2016-11-21T00:29:34.227Z,94.22
2016-11-21T00:30:44.006Z,94.51
2016-11-21T00:31:54.441Z,94.41
2016-11-21T00:33:04.772Z,95.17
2016-11-21T00:34:14.897Z,95.46
2016-11-21T00:35:25.288Z,95.17
2016-11-21T00:36:35.607Z,95.75
2016-11-21T00:37:45.619Z,95.84
2016-11-21T00:38:55.939Z,96.03
2016-11-21T00:40:05.707Z,96.7
2016-11-21T00:41:15.718Z,96.03
2016-11-21T00:42:25.738Z,96.51
2016-11-21T00:43:35.746Z,96.7
2016-11-21T00:44:46.148Z,96.89
2016-11-21T00:45:56.187Z,96.8
2016-11-21T00:47:06.523Z,96.41
2016-11-21T00:48:16.547Z,96.8
2016-11-21T00:49:26.553Z,96.89
2016-11-21T00:50:36.644Z,96.41
2016-11-21T00:51:46.985Z,97.37
2016-11-21T00:52:56.993Z,97.94
2016-11-21T00:54:07.369Z,97.56
2016-11-21T00:55:17.686Z,97.37
2016-11-21T00:56:27.716Z,97.56
2016-11-21T00:57:38.036Z,97.46
2016-11-21T00:58:48.357Z,97.85
2016-11-21T00:59:58.528Z,97.75
2016-11-21T01:01:08.548Z,97.56
2016-11-21T01:02:18.029Z,97.85
2016-11-21T01:03:28.048Z,98.7
2016-11-21T01:04:38.369Z,98.61
2016-11-21T01:05:48.449Z,98.9
2016-11-21T01:06:58.456Z,98.7
2016-11-21T01:08:08.229Z,98.61
2016-11-21T01:09:18.248Z,99.08
2016-11-21T01:10:28.248Z,99.75
2016-11-21T01:11:38.588Z,99.99
2016-11-21T01:12:49.025Z,99.99
2016-11-21T01:13:59.048Z,99.99
2016-11-21T01:15:08.729Z,99.99
2016-11-21T01:16:19.045Z,99.99
2016-11-21T01:17:29.063Z,99.99
2016-11-21T01:18:39.401Z,99.99
2016-11-21T01:19:49.454Z,99.99
2016-11-21T01:20:59.934Z,99.99
2016-11-21T01:22:10.058Z,99.99
2016-11-21T01:23:20.501Z,99.99
2016-11-21T01:24:30.524Z,99.99
2016-11-21T01:25:40.839Z,99.99
2016-11-21T01:26:50.538Z,99.99
2016-11-21T01:28:00.912Z,99.99
2016-11-21T01:29:10.920Z,99.99
2016-11-21T01:30:20.689Z,99.99
2016-11-21T01:31:30.715Z,99.99
2016-11-21T01:32:40.731Z,99.99
2016-11-21T01:33:50.868Z,99.99
2016-11-21T01:35:00.875Z,99.99
2016-11-21T01:36:10.869Z,99.99
2016-11-21T01:37:20.938Z,99.99
2016-11-21T01:38:31.269Z,99.99
2016-11-21T01:39:40.664Z,99.99
2016-11-21T01:40:50.720Z,99.99
2016-11-21T01:42:00.771Z,99.99
2016-11-21T01:43:10.905Z,99.99
2016-11-21T01:44:20.650Z,99.99
2016-11-21T01:45:30.038Z,99.99
2016-11-21T01:46:40.077Z,99.99
2016-11-21T01:47:50.389Z,99.99
2016-11-21T01:49:00.834Z,99.99
2016-11-21T01:50:10.832Z,99.99
2016-11-21T01:51:20.871Z,99.99
2016-11-21T01:52:31.192Z,99.99
2016-11-21T01:53:41.520Z,99.99
2016-11-21T01:54:51.328Z,99.99
2016-11-21T01:56:01.399Z,99.99
2016-11-21T01:57:11.430Z,99.99
2016-11-21T01:58:20.808Z,99.99
2016-11-21T01:59:31.129Z,99.99
2016-11-21T02:00:41.297Z,99.99
2016-11-21T02:01:51.319Z,99.99
2016-11-21T02:03:01.032Z,99.99
2016-11-21T02:04:11.100Z,99.99
2016-11-21T02:05:21.191Z,99.99
2016-11-21T02:06:31.244Z,99.99
2016-11-21T02:07:41.560Z,99.99
2016-11-21T02:08:51.579Z,99.99
2016-11-21T02:10:01.310Z,99.99
2016-11-21T02:11:11.702Z,99.99
2016-11-21T02:12:22.018Z,99.99
2016-11-21T02:13:32.347Z,99.99
2016-11-21T02:14:42.490Z,99.99
2016-11-21T02:15:52.545Z,99.99
2016-11-21T02:17:02.231Z,99.99
2016-11-21T02:18:12.321Z,99.99
2016-11-21T02:19:22.638Z,99.99
2016-11-21T02:20:32.336Z,99.99
2016-11-21T02:21:42.369Z,99.99
2016-11-21T02:22:52.466Z,99.99
2016-11-21T02:24:02.480Z,99.99
2016-11-21T02:25:12.502Z,99.99
2016-11-21T02:26:22.528Z,99.99
2016-11-21T02:27:32.520Z,99.99
2016-11-21T02:28:42.969Z,99.99
2016-11-21T02:29:52.981Z,99.99
2016-11-21T02:31:03.016Z,99.99
2016-11-21T02:32:13.331Z,99.99
2016-11-21T02:33:22.738Z,99.99
2016-11-21T02:34:33.080Z,99.99
2016-11-21T02:35:43.403Z,99.99
2016-11-21T02:36:53.715Z,99.99
2016-11-21T02:38:03.421Z,99.99
2016-11-21T02:39:13.757Z,99.99
2016-11-21T02:40:23.155Z,99.99
2016-11-21T02:41:33.310Z,99.99
2016-11-21T02:42:43.372Z,99.99
2016-11-21T02:43:53.477Z,99.99
2016-11-21T02:45:03.489Z,99.99
2016-11-21T02:46:13.189Z,99.99
2016-11-21T02:47:22.932Z,99.99
2016-11-21T02:48:33.295Z,99.99
2016-11-21T02:49:43.328Z,99.99
2016-11-21T02:50:53.639Z,99.99
2016-11-21T02:52:03.327Z,99.99
2016-11-21T02:53:13.213Z,99.99
2016-11-21T02:54:22.585Z,99.99
2016-11-21T02:55:32.389Z,99.99
2016-11-21T02:56:42.730Z,99.99
2016-11-21T02:57:52.119Z,99.99
2016-11-21T02:59:02.453Z,99.99
2016-11-21T03:00:12.169Z,99.99
2016-11-21T03:01:22.379Z,99.99
2016-11-21T03:02:32.702Z,99.99
2016-11-21T03:03:43.029Z,99.99
2016-11-21T03:04:53.041Z,99.99
2016-11-21T03:06:02.754Z,99.99
2016-11-21T03:07:12.780Z,99.99
2016-11-21T03:08:23.210Z,99.99
2016-11-21T03:09:33.255Z,99.99
2016-11-21T03:10:43.317Z,99.99
2016-11-21T03:11:53.335Z,99.99
2016-11-21T03:13:03.336Z,99.99
2016-11-21T03:14:13.353Z,99.99
2016-11-21T03:15:23.720Z,99.99
2016-11-21T03:16:33.760Z,99.99
2016-11-21T03:17:44.079Z,99.99
2016-11-21T03:18:54.081Z,99.99
2016-11-21T03:20:04.089Z,99.99
2016-11-21T03:21:14.095Z,99.99
2016-11-21T03:22:24.098Z,99.99
2016-11-21T03:23:34.481Z,99.99
2016-11-21T03:24:44.180Z,99.99
2016-11-21T03:25:54.599Z,99.99
2016-11-21T03:27:04.937Z,99.99
2016-11-21T03:28:14.640Z,99.99
2016-11-21T03:29:24.642Z,99.99
2016-11-21T03:30:34.640Z,99.99
2016-11-21T03:31:44.719Z,99.99
2016-11-21T03:32:55.052Z,99.99
2016-11-21T03:34:04.772Z,99.99
2016-11-21T03:35:14.809Z,99.99
2016-11-21T03:36:24.533Z,99.99
2016-11-21T03:37:34.578Z,99.99
2016-11-21T03:38:43.668Z,99.99
2016-11-21T03:39:53.653Z,99.99
2016-11-21T03:41:03.350Z,99.99
2016-11-21T03:42:13.399Z,99.99
2016-11-21T03:43:23.510Z,99.99
2016-11-21T03:44:33.288Z,99.99
2016-11-21T03:45:43.372Z,99.99
2016-11-21T03:46:53.079Z,99.99
2016-11-21T03:48:03.469Z,99.99
2016-11-21T03:49:13.599Z,99.99
2016-11-21T03:50:23.609Z,99.99
2016-11-21T03:51:33.321Z,99.99
2016-11-21T03:52:42.404Z,99.99
2016-11-21T03:53:52.740Z,99.99
2016-11-21T03:55:02.457Z,99.99
2016-11-21T03:56:12.778Z,99.99
2016-11-21T03:57:22.812Z,99.99
2016-11-21T03:58:32.207Z,99.99
2016-11-21T03:59:42.209Z,99.99
2016-11-21T04:00:52.508Z,99.99
2016-11-21T04:02:03.175Z,99.99
2016-11-21T04:03:13.283Z,99.99
2016-11-21T04:04:23.280Z,99.99
2016-11-21T04:05:33.375Z,99.99
2016-11-21T04:06:43.079Z,99.99
2016-11-21T04:07:53.711Z,99.99
2016-11-21T04:09:03.606Z,99.99
2016-11-21T04:10:13.781Z,99.99
2016-11-21T04:11:24.129Z,99.99
2016-11-21T04:12:34.449Z,99.99
2016-11-21T04:13:44.889Z,99.99
2016-11-21T04:14:55.220Z,99.99
2016-11-21T04:16:05.548Z,99.99
2016-11-21T04:17:15.651Z,99.99
2016-11-21T04:18:26.339Z,99.99
2016-11-21T04:19:36.041Z,99.99
2016-11-21T04:20:46.048Z,99.99
2016-11-21T04:21:55.858Z,99.99
2016-11-21T04:23:05.652Z,99.99
2016-11-21T04:24:15.661Z,99.99
2016-11-21T04:25:25.812Z,99.99
2016-11-21T04:26:35.529Z,99.99
2016-11-21T04:27:45.561Z,99.99
2016-11-21T04:28:55.576Z,99.99
2016-11-21T04:30:05.930Z,99.99
2016-11-21T04:31:15.933Z,99.99
2016-11-21T04:32:26.291Z,99.99
2016-11-21T04:33:36.698Z,99.99
2016-11-21T04:34:47.049Z,99.99
2016-11-21T04:35:57.061Z,99.99
2016-11-21T04:37:07.367Z,99.99
2016-11-21T04:38:17.708Z,99.99
2016-11-21T04:39:28.069Z,99.99
2016-11-21T04:40:37.948Z,99.99
2016-11-21T04:41:47.345Z,99.99
2016-11-21T04:42:57.388Z,99.99
2016-11-21T04:44:07.433Z,99.99
2016-11-21T04:45:17.750Z,99.99
2016-11-21T04:46:27.598Z,99.99
2016-11-21T04:47:37.457Z,99.99
2016-11-21T04:48:47.468Z,99.99
2016-11-21T04:49:57.790Z,99.99
2016-11-21T04:51:07.837Z,99.99
2016-11-21T04:52:17.550Z,99.99
2016-11-21T04:53:27.261Z,99.99
2016-11-21T04:54:37.578Z,99.99
2016-11-21T04:55:47.583Z,99.99
2016-11-21T04:56:57.917Z,99.99
2016-11-21T04:58:08.236Z,99.99
2016-11-21T04:59:17.949Z,99.99
2016-11-21T05:00:27.969Z,99.99
2016-11-21T05:01:38.295Z,99.99
2016-11-21T05:02:48.942Z,99.99
2016-11-21T05:03:58.949Z,99.99
2016-11-21T05:05:09.020Z,99.99
2016-11-21T05:06:19.030Z,99.99
2016-11-21T05:07:29.037Z,99.99
2016-11-21T05:08:38.868Z,99.99
2016-11-21T05:09:49.291Z,99.99
2016-11-21T05:10:59.354Z,99.61
2016-11-21T05:12:09.730Z,99.9
2016-11-21T05:13:19.826Z,99.23
2016-11-21T05:14:29.521Z,99.61
2016-11-21T05:15:39.570Z,99.71
2016-11-21T05:16:49.582Z,99.23
2016-11-21T05:17:59.278Z,98.56
2016-11-21T05:19:09.028Z,99.13
2016-11-21T05:20:19.031Z,98.94
2016-11-21T05:21:29.066Z,97.89
2016-11-21T05:22:39.177Z,97.61
2016-11-21T05:23:49.208Z,97.89
2016-11-21T05:24:59.082Z,97.22
2016-11-21T05:26:09.161Z,97.89
2016-11-21T05:27:19.308Z,97.61
2016-11-21T05:28:29.314Z,98.37
2016-11-21T05:29:39.648Z,97.42
2016-11-21T05:30:49.986Z,97.51
2016-11-21T05:32:00.039Z,97.22
2016-11-21T05:33:10.354Z,97.8
2016-11-21T05:34:20.069Z,97.51
2016-11-21T05:35:30.397Z,97.42
2016-11-21T05:36:40.740Z,96.75
2016-11-21T05:37:50.739Z,96.94
2016-11-21T05:39:00.156Z,97.51
2016-11-21T05:40:10.568Z,97.42
2016-11-21T05:41:20.609Z,97.32
2016-11-21T05:42:30.637Z,96.75
2016-11-21T05:43:40.679Z,96.84
2016-11-21T05:44:51.237Z,96.94
2016-11-21T05:46:00.627Z,96.84
2016-11-21T05:47:11.202Z,96.37
2016-11-21T05:48:20.887Z,96.66
2016-11-21T05:49:30.905Z,96.75
2016-11-21T05:50:40.967Z,96.56
2016-11-21T05:51:50.658Z,96.75
2016-11-21T05:53:01.250Z,96.56
2016-11-21T05:54:11.347Z,96.37
2016-11-21T05:55:21.172Z,96.27
2016-11-21T05:56:30.885Z,95.89
2016-11-21T05:57:40.649Z,95.98
2016-11-21T05:58:50.387Z,95.94
2016-11-21T06:00:00.409Z,96.03
2016-11-21T06:01:10.432Z,95.56
2016-11-21T06:02:20.536Z,95.27
2016-11-21T06:03:30.638Z,95.27
2016-11-21T06:04:40.787Z,95.46
2016-11-21T06:05:51.337Z,94.89
2016-11-21T06:07:01.409Z,94.74
2016-11-21T06:08:11.757Z,95.27
2016-11-21T06:09:21.785Z,94.51
2016-11-21T06:10:32.106Z,94.51
2016-11-21T06:11:42.438Z,94.46
2016-11-21T06:12:52.778Z,94.6
2016-11-21T06:14:02.879Z,94.51
2016-11-21T06:15:13.319Z,94.03
2016-11-21T06:16:23.885Z,94.98
2016-11-21T06:17:34.568Z,94.22
2016-11-21T06:18:44.992Z,94.6
2016-11-21T06:19:55.326Z,93.84
2016-11-21T06:21:04.416Z,94.03
2016-11-21T06:22:14.734Z,94.03
2016-11-21T06:23:24.547Z,94.03
2016-11-21T06:24:34.866Z,93.74
2016-11-21T06:25:45.294Z,93.55
2016-11-21T06:26:55.617Z,94.22
2016-11-21T06:28:05.777Z,93.65
2016-11-21T06:29:15.808Z,93.65
2016-11-21T06:30:25.814Z,94.12
2016-11-21T06:31:35.284Z,93.55
2016-11-21T06:32:45.618Z,93.84
2016-11-21T06:33:55.630Z,93.84
2016-11-21T06:35:05.952Z,93.84
2016-11-21T06:36:16.308Z,93.84
2016-11-21T06:37:26.649Z,94.12
2016-11-21T06:38:36.654Z,94.03
2016-11-21T06:39:46.375Z,94.03
2016-11-21T06:40:56.987Z,94.22
2016-11-21T06:42:07.449Z,94.22
2016-11-21T06:43:16.536Z,94.31
2016-11-21T06:44:26.320Z,93.84
2016-11-21T06:45:36.638Z,94.31
2016-11-21T06:46:46.975Z,94.03
2016-11-21T06:47:56.986Z,94.03
2016-11-21T06:49:07.327Z,94.89
2016-11-21T06:50:17.357Z,95.12
2016-11-21T06:51:27.740Z,95.22
2016-11-21T06:52:38.059Z,95.51
2016-11-21T06:53:47.927Z,95.41
2016-11-21T06:54:57.650Z,95.12
2016-11-21T06:56:07.984Z,95.12
2016-11-21T06:57:18.307Z,95.89
2016-11-21T06:58:28.332Z,96.17
2016-11-21T06:59:38.474Z,95.98
2016-11-21T07:00:48.797Z,95.61
2016-11-21T07:01:58.565Z,95.79
2016-11-21T07:03:08.646Z,95.79
2016-11-21T07:04:18.837Z,95.61
2016-11-21T07:05:29.159Z,95.98
2016-11-21T07:06:39.279Z,95.22
2016-11-21T07:07:49.288Z,94.56
2016-11-21T07:08:59.709Z,94.7
2016-11-21T07:10:09.419Z,93.93
2016-11-21T07:11:19.436Z,94.03
2016-11-21T07:12:29.518Z,93.46
2016-11-21T07:13:39.548Z,92.79
2016-11-21T07:14:49.878Z,92.88
2016-11-21T07:16:00.198Z,92.31
2016-11-21T07:17:10.367Z,92.6
2016-11-21T07:18:20.375Z,92.6
2016-11-21T07:19:30.385Z,91.93
2016-11-21T07:20:40.405Z,91.55
2016-11-21T07:21:50.754Z,91.3
2016-11-21T07:23:00.770Z,91.21
2016-11-21T07:24:11.097Z,90.54
2016-11-21T07:25:21.124Z,91.21
2016-11-21T07:26:31.246Z,91.11
2016-11-21T07:27:41.686Z,90.54
2016-11-21T07:28:51.726Z,89.97
2016-11-21T07:30:02.145Z,89.97
2016-11-21T07:31:11.854Z,89.78
2016-11-21T07:32:22.185Z,89.68
2016-11-21T07:33:32.182Z,89.78
2016-11-21T07:34:42.604Z,89.68
2016-11-21T07:35:52.632Z,89.2
2016-11-21T07:37:02.385Z,88.73
2016-11-21T07:38:12.398Z,89.01
2016-11-21T07:39:22.915Z,88.63
2016-11-21T07:40:32.622Z,88.15
2016-11-21T07:41:42.644Z,88.58
2016-11-21T07:42:52.678Z,88.63
2016-11-21T07:44:02.427Z,88.58
2016-11-21T07:45:12.742Z,88.58
2016-11-21T07:46:23.157Z,88.48
2016-11-21T07:47:33.162Z,88.01
2016-11-21T07:48:43.249Z,88.63
2016-11-21T07:49:53.283Z,88.44
2016-11-21T07:51:03.144Z,88.73
2016-11-21T07:52:13.182Z,88.39
2016-11-21T07:53:23.234Z,88.44
2016-11-21T07:54:33.574Z,88.54
2016-11-21T07:55:43.707Z,88.54
2016-11-21T07:56:54.024Z,87.87
2016-11-21T07:58:03.733Z,88.48
2016-11-21T07:59:13.764Z,88.63
2016-11-21T08:00:23.781Z,87.87
2016-11-21T08:01:33.839Z,88.29
2016-11-21T08:02:43.541Z,88.29
2016-11-21T08:03:53.558Z,87.53
2016-11-21T08:05:03.943Z,87.34
2016-11-21T08:06:14.264Z,86.29
2016-11-21T08:07:24.436Z,87.05
2016-11-21T08:08:34.768Z,87.24
2016-11-21T08:09:45.127Z,85.81
2016-11-21T08:10:54.562Z,86
2016-11-21T08:12:04.583Z,85.9
2016-11-21T08:13:15.001Z,85.33
2016-11-21T08:14:24.880Z,85.05
2016-11-21T08:15:34.906Z,84.52
2016-11-21T08:16:44.636Z,84.42
2016-11-21T08:17:54.667Z,83.65
2016-11-21T08:19:04.987Z,83.56
2016-11-21T08:20:15.435Z,83.27
2016-11-21T08:21:25.533Z,82.64
2016-11-21T08:22:35.805Z,82.79
2016-11-21T08:23:46.391Z,82.83
2016-11-21T08:24:56.412Z,83.17
2016-11-21T08:26:06.126Z,82.51
2016-11-21T08:27:15.857Z,82.79
2016-11-21T08:28:25.564Z,82.89
2016-11-21T08:29:35.566Z,82.64
2016-11-21T08:30:45.324Z,82.64
2016-11-21T08:31:55.775Z,82.45
2016-11-21T08:33:06.485Z,81.78
2016-11-21T08:34:16.523Z,81.11
2016-11-21T08:35:26.353Z,80.82
2016-11-21T08:36:36.393Z,80.82
2016-11-21T08:37:46.129Z,81.02
2016-11-21T08:38:56.387Z,80.96
2016-11-21T08:40:05.825Z,80.1
2016-11-21T08:41:16.470Z,80.87
2016-11-21T08:42:26.188Z,80.82
2016-11-21T08:43:35.912Z,80.82
2016-11-21T08:44:46.026Z,81.4
2016-11-21T08:45:56.098Z,80.58
2016-11-21T08:47:05.810Z,80.06
2016-11-21T08:48:16.268Z,81.68
2016-11-21T08:49:26.174Z,80.63
2016-11-21T08:50:37.267Z,81.02
2016-11-21T08:51:47.658Z,80.77
2016-11-21T08:52:58.056Z,80.67
2016-11-21T08:54:08.165Z,80.58
2016-11-21T08:55:18.622Z,80.87
2016-11-21T08:56:28.677Z,80.29
2016-11-21T08:57:38.713Z,80.35
2016-11-21T08:58:48.816Z,80
2016-11-21T08:59:58.846Z,80
2016-11-21T09:01:08.970Z,80.29
2016-11-21T09:02:18.993Z,80.44
2016-11-21T09:03:29.024Z,81.25
2016-11-21T09:04:39.164Z,81.3
2016-11-21T09:05:49.224Z,80.82
2016-11-21T09:06:59.259Z,80.92
2016-11-21T09:08:09.317Z,81.02
2016-11-21T09:09:18.725Z,80.63
2016-11-21T09:10:28.994Z,80.82
2016-11-21T09:11:39.345Z,81.78
2016-11-21T09:12:49.483Z,81.4
2016-11-21T09:13:59.804Z,81.21
2016-11-21T09:15:10.154Z,81.21
2016-11-21T09:16:20.484Z,81.21
2016-11-21T09:17:30.897Z,81.78
2016-11-21T09:18:40.705Z,81.59
2016-11-21T09:19:51.033Z,81.59
2016-11-21T09:21:01.828Z,81.59
2016-11-21T09:22:12.053Z,81.68
2016-11-21T09:23:22.568Z,81.49
2016-11-21T09:24:32.914Z,81.59
2016-11-21T09:25:43.258Z,81.78
2016-11-21T09:26:53.292Z,81.68
2016-11-21T09:28:03.322Z,81.34
2016-11-21T09:29:13.355Z,81.97
2016-11-21T09:30:23.740Z,81.68
2016-11-21T09:31:34.074Z,82.54
2016-11-21T09:32:43.930Z,82.26
2016-11-21T09:33:54.018Z,81.97
2016-11-21T09:35:03.976Z,82.35
2016-11-21T09:36:14.387Z,82.35
2016-11-21T09:37:24.533Z,82.45
2016-11-21T09:38:34.544Z,82.74
2016-11-21T09:39:44.897Z,82.74
2016-11-21T09:40:54.965Z,82.26
2016-11-21T09:42:05.176Z,82.26
2016-11-21T09:43:15.587Z,82.45
2016-11-21T09:44:25.648Z,82.17
2016-11-21T09:45:35.684Z,82.35
2016-11-21T09:46:45.707Z,82.45
2016-11-21T09:47:55.421Z,81.54
2016-11-21T09:49:05.837Z,81.88
2016-11-21T09:50:15.688Z,81.73
2016-11-21T09:51:26.007Z,81.68
2016-11-21T09:52:35.726Z,81.92
2016-11-21T09:53:46.045Z,81.82
2016-11-21T09:54:56.168Z,82.01
2016-11-21T09:56:06.499Z,81.78
2016-11-21T09:57:15.976Z,81.54
2016-11-21T09:58:26.744Z,81.54
2016-11-21T09:59:37.249Z,81.73
2016-11-21T10:00:47.640Z,81.44
2016-11-21T10:01:57.667Z,81.05
2016-11-21T10:03:07.737Z,81.25
2016-11-21T10:04:18.104Z,80.96
2016-11-21T10:05:28.142Z,80.87
2016-11-21T10:06:38.467Z,80.87
2016-11-21T10:07:48.513Z,81.44
2016-11-21T10:08:58.620Z,81.34
2016-11-21T10:10:09.007Z,81.44
2016-11-21T10:11:19.063Z,81.73
2016-11-21T10:12:29.600Z,81.82
2016-11-21T10:13:39.634Z,80.87
2016-11-21T10:14:49.970Z,81.48
2016-11-21T10:15:59.842Z,81
2016-11-21T10:17:09.855Z,81.38
2016-11-21T10:18:19.578Z,80.81
2016-11-21T10:19:29.896Z,80.9
2016-11-21T10:20:39.969Z,81.29
2016-11-21T10:21:50.295Z,81.38
2016-11-21T10:23:00.377Z,81.34
2016-11-21T10:24:10.709Z,81.48
2016-11-21T10:25:21.035Z,81.77
2016-11-21T10:26:31.168Z,82.49
2016-11-21T10:27:41.498Z,82.2
2016-11-21T10:28:52.069Z,81.77
2016-11-21T10:30:02.523Z,82.49
2016-11-21T10:31:12.558Z,82.34
2016-11-21T10:32:22.888Z,81.86
2016-11-21T10:33:33.218Z,81.38
2016-11-21T10:34:43.248Z,81.48
2016-11-21T10:35:52.939Z,81.38
2016-11-21T10:37:03.291Z,81.67
2016-11-21T10:38:13.624Z,81.67
2016-11-21T10:39:23.948Z,81.38
2016-11-21T10:40:34.021Z,81.86
2016-11-21T10:41:43.790Z,82.06
2016-11-21T10:42:53.976Z,81.38
2016-11-21T10:44:04.316Z,81.67
2016-11-21T10:45:14.347Z,81.57
2016-11-21T10:46:24.584Z,81.48
2016-11-21T10:47:34.607Z,80.81
2016-11-21T10:48:44.947Z,81.62
2016-11-21T10:49:55.400Z,80.47
2016-11-21T10:51:04.815Z,80.66
2016-11-21T10:52:15.128Z,80.94
2016-11-21T10:53:25.669Z,80.27
2016-11-21T10:54:35.988Z,80.94
2016-11-21T10:55:46.346Z,80.37
2016-11-21T10:56:56.970Z,80.47
2016-11-21T10:58:06.698Z,80.66
2016-11-21T10:59:16.849Z,80.6
2016-11-21T11:00:27.028Z,80.32
2016-11-21T11:01:37.369Z,81.08
2016-11-21T11:02:47.509Z,81.08
2016-11-21T11:03:57.970Z,80.99
2016-11-21T11:05:08.309Z,80.89
2016-11-21T11:06:18.349Z,81.62
2016-11-21T11:07:28.157Z,81.43
2016-11-21T11:08:38.581Z,81.46
2016-11-21T11:09:48.913Z,81.18
2016-11-21T11:10:59.365Z,81.37
2016-11-21T11:12:09.918Z,81.37
2016-11-21T11:13:19.916Z,81.46
2016-11-21T11:14:30.237Z,81.85
2016-11-21T11:15:40.578Z,82.42
2016-11-21T11:16:50.650Z,83
2016-11-21T11:18:00.985Z,83
2016-11-21T11:19:11.407Z,83.58
2016-11-21T11:20:21.737Z,84.39
2016-11-21T11:21:31.744Z,85.35
2016-11-21T11:22:42.104Z,85.35
2016-11-21T11:23:51.809Z,86.31
2016-11-21T11:25:02.149Z,87.08
2016-11-21T11:26:12.499Z,87.65
2016-11-21T11:27:22.530Z,88.56
2016-11-21T11:28:32.857Z,89.43
2016-11-21T11:29:43.068Z,89.52
2016-11-21T11:30:53.407Z,89.43
2016-11-21T11:32:03.170Z,89.72
2016-11-21T11:33:13.498Z,90.19
2016-11-21T11:34:23.821Z,89.81
2016-11-21T11:35:33.965Z,90
2016-11-21T11:36:43.997Z,90.48
2016-11-21T11:37:54.119Z,89.62
2016-11-21T11:39:03.830Z,89.72
2016-11-21T11:40:13.847Z,89.43
2016-11-21T11:41:23.865Z,88.56
2016-11-21T11:42:33.964Z,89.52
2016-11-21T11:43:44.290Z,89.62
2016-11-21T11:44:54.763Z,89.14
2016-11-21T11:46:05.570Z,89.23
2016-11-21T11:47:15.596Z,89.33
2016-11-21T11:48:26.041Z,89.81
2016-11-21T11:49:36.381Z,89.33
2016-11-21T11:50:46.748Z,89.72
2016-11-21T11:51:56.998Z,90.58
2016-11-21T11:53:07.375Z,90.67
2016-11-21T11:54:17.825Z,90.58
2016-11-21T11:55:27.828Z,89.72
2016-11-21T11:56:37.781Z,89.52
2016-11-21T11:57:48.124Z,89.33
2016-11-21T11:58:58.444Z,89.04
2016-11-21T12:00:08.598Z,89.52
2016-11-21T12:01:18.940Z,89.62
2016-11-21T12:02:28.952Z,89.43
2016-11-21T12:03:38.408Z,88.95
2016-11-21T12:04:48.558Z,87.65
2016-11-21T12:05:58.886Z,87.84
2016-11-21T12:07:09.002Z,87.55
2016-11-21T12:08:18.711Z,88.32
2016-11-21T12:09:29.073Z,88.51
2016-11-21T12:10:39.415Z,87.84
2016-11-21T12:11:49.489Z,88.09
2016-11-21T12:12:59.832Z,87.51
2016-11-21T12:14:10.358Z,87.8
2016-11-21T12:15:20.377Z,88.18
2016-11-21T12:16:30.710Z,88.37
2016-11-21T12:17:40.795Z,88.28
2016-11-21T12:18:51.289Z,88.09
2016-11-21T12:20:01.618Z,88.18
2016-11-21T12:21:11.936Z,88.85
2016-11-21T12:22:22.394Z,88.66
2016-11-21T12:23:32.878Z,88.28
2016-11-21T12:24:42.910Z,88.95
2016-11-21T12:25:53.271Z,88.56
2016-11-21T12:27:03.284Z,88.95
2016-11-21T12:28:13.600Z,89.23
2016-11-21T12:29:23.927Z,89.52
2016-11-21T12:30:34.310Z,89.33
2016-11-21T12:31:44.338Z,89.81
2016-11-21T12:32:54.379Z,90.19
2016-11-21T12:34:04.080Z,89.23
2016-11-21T12:35:14.138Z,88.66
2016-11-21T12:36:24.213Z,89.81
2016-11-21T12:37:34.341Z,89.62
2016-11-21T12:38:44.686Z,89.43
2016-11-21T12:39:54.742Z,89.23
2016-11-21T12:41:04.777Z,89.04
2016-11-21T12:42:15.192Z,89.43
2016-11-21T12:43:25.532Z,89.72
2016-11-21T12:44:35.851Z,89.04
2016-11-21T12:45:46.208Z,89.23
2016-11-21T12:46:56.248Z,89.62
2016-11-21T12:48:06.303Z,89.14
2016-11-21T12:49:16.311Z,89.04
2016-11-21T12:50:26.651Z,88.95
2016-11-21T12:51:36.666Z,88.56
2016-11-21T12:52:46.387Z,88.66
2016-11-21T12:53:56.698Z,88.76
2016-11-21T12:55:06.424Z,88.56
2016-11-21T12:56:16.131Z,89.04
2016-11-21T12:57:26.578Z,88.95
2016-11-21T12:58:36.975Z,88.76
2016-11-21T12:59:47.054Z,88.95
2016-11-21T13:00:56.922Z,88.66
2016-11-21T13:02:07.299Z,88.66
2016-11-21T13:03:17.631Z,88.47
2016-11-21T13:04:27.661Z,87.8
2016-11-21T13:05:37.891Z,88.09
2016-11-21T13:06:48.260Z,88.56
2016-11-21T13:07:58.618Z,87.99
2016-11-21T13:09:08.618Z,88.09
2016-11-21T13:10:18.356Z,88.18
2016-11-21T13:11:28.700Z,88.76
2016-11-21T13:12:39.075Z,88.85
2016-11-21T13:13:49.423Z,88.56
2016-11-21T13:14:59.519Z,88.18
2016-11-21T13:16:09.361Z,88.28
2016-11-21T13:17:19.802Z,87.23
2016-11-21T13:18:30.150Z,87.41
2016-11-21T13:19:40.275Z,87.99
2016-11-21T13:20:50.837Z,87.99
2016-11-21T13:22:01.237Z,88.09
2016-11-21T13:23:11.601Z,88.37
2016-11-21T13:24:21.657Z,88.95
2016-11-21T13:25:31.378Z,89.33
2016-11-21T13:26:41.402Z,88.85
2016-11-21T13:27:51.730Z,88.85
2016-11-21T13:29:02.139Z,88.62
2016-11-21T13:30:12.195Z,88.81
2016-11-21T13:31:22.229Z,88.33
2016-11-21T13:32:32.590Z,88.56
2016-11-21T13:33:42.932Z,88.95
2016-11-21T13:34:53.061Z,89.14
2016-11-21T13:36:03.090Z,88.85
2016-11-21T13:37:13.134Z,89.29
2016-11-21T13:38:23.371Z,88.85
2016-11-21T13:39:33.426Z,88.81
2016-11-21T13:40:43.858Z,88.52
2016-11-21T13:41:53.666Z,88.71
2016-11-21T13:43:03.999Z,89.09
2016-11-21T13:44:14.479Z,89
2016-11-21T13:45:24.859Z,88.13
2016-11-21T13:46:35.209Z,88.04
2016-11-21T13:47:45.841Z,87.95
2016-11-21T13:48:55.605Z,87.56
2016-11-21T13:50:06.342Z,87.47
2016-11-21T13:51:16.400Z,87.56
2016-11-21T13:52:26.426Z,88.04
2016-11-21T13:53:36.460Z,87.47
2016-11-21T13:54:46.292Z,87.47
2016-11-21T13:55:56.360Z,87.47
2016-11-21T13:57:06.689Z,87.56
2016-11-21T13:58:17.022Z,87.47
2016-11-21T13:59:27.457Z,87.27
2016-11-21T14:00:37.790Z,87.47
2016-11-21T14:01:47.829Z,87.37
2016-11-21T14:02:57.999Z,87.56
2016-11-21T14:04:08.083Z,87.95
2016-11-21T14:05:18.190Z,87.27
2016-11-21T14:06:27.907Z,87.66
2016-11-21T14:07:38.301Z,87.47
2016-11-21T14:08:48.349Z,88.81
2016-11-21T14:09:58.710Z,87.71
2016-11-21T14:11:08.768Z,88.29
2016-11-21T14:12:19.107Z,87.04
2016-11-21T14:13:28.501Z,86.85
2016-11-21T14:14:38.846Z,86.99
2016-11-21T14:15:49.198Z,85.99
2016-11-21T14:16:59.332Z,86.61
2016-11-21T14:18:09.662Z,86.7
2016-11-21T14:19:20.020Z,86.61
2016-11-21T14:20:30.400Z,86.8
2016-11-21T14:21:40.733Z,86.04
2016-11-21T14:22:50.790Z,86.37
2016-11-21T14:24:00.743Z,86.8
2016-11-21T14:25:11.333Z,86.61
2016-11-21T14:26:21.719Z,86.47
2016-11-21T14:27:32.072Z,86.76
2016-11-21T14:28:42.481Z,86.18
2016-11-21T14:29:52.521Z,85.99
2016-11-21T14:31:02.554Z,86.28
2016-11-21T14:32:12.909Z,86.94
2016-11-21T14:33:23.321Z,86.66
2016-11-21T14:34:33.460Z,86.47
2016-11-21T14:35:43.490Z,87.23
2016-11-21T14:36:53.923Z,87.33
2016-11-21T14:38:03.965Z,87.71
2016-11-21T14:39:14.373Z,88
2016-11-21T14:40:24.707Z,88.09
2016-11-21T14:41:35.061Z,88.76
2016-11-21T14:42:45.084Z,88.76
2016-11-21T14:43:54.846Z,88.86
2016-11-21T14:45:05.209Z,88.38
2016-11-21T14:46:15.529Z,88.67
2016-11-21T14:47:26.085Z,88.29
2016-11-21T14:48:36.415Z,87.43
2016-11-21T14:49:46.472Z,87.29
2016-11-21T14:50:56.494Z,86.8
2016-11-21T14:52:06.902Z,86.52
2016-11-21T14:53:17.242Z,86.52
2016-11-21T14:54:27.588Z,86.61
2016-11-21T14:55:38.075Z,85.94
2016-11-21T14:56:48.553Z,85.18
2016-11-21T14:57:58.968Z,85.18
2016-11-21T14:59:09.059Z,85.28
2016-11-21T15:00:19.134Z,84.89
2016-11-21T15:01:29.485Z,85.09
2016-11-21T15:02:39.833Z,84.99
2016-11-21T15:03:49.859Z,85.28
2016-11-21T15:04:59.882Z,84.8